Time;durP1;ratioP1;P1;durP2;ratioP2;P2;SDS_P1;SDS_P2;PMS_P1;PMS_P2;Temp;Humidity;BMP_temperature;BMP_pressure;BME280_temperature;BME280_humidity;BME280_pressure;Samples;Min_cycle;Max_cycle;Signal;HPM_P1;HPM_P2
2021/05/23 00:00:08;;;;;;;1.93;1.30;;;;;;;;;;5035453;28;20902;-66
2021/05/23 00:02:34;;;;;;;2.00;1.30;;;;;;;;;;5034021;28;20514;-67
2021/05/23 00:05:00;;;;;;;1.97;1.20;;;;;;;;;;5036679;28;20429;-66
2021/05/23 00:07:27;;;;;;;4.90;1.77;;;;;;;;;;5039834;28;20500;-68
2021/05/23 00:09:54;;;;;;;4.30;3.90;;;;;;;;;;5055042;28;20442;-66
2021/05/23 00:12:20;;;;;;;3.60;1.30;;;;;;;;;;5052814;28;20470;-66
2021/05/23 00:14:46;;;;;;;4.67;1.50;;;;;;;;;;5054837;28;20441;-67
2021/05/23 00:17:12;;;;;;;2.33;1.30;;;;;;;;;;5052507;28;20422;-67
2021/05/23 00:19:38;;;;;;;5.50;1.67;;;;;;;;;;5055215;28;20398;-67
2021/05/23 00:22:05;;;;;;;3.10;2.00;;;;;;;;;;5052710;28;20437;-67
2021/05/23 00:24:32;;;;;;;3.80;1.50;;;;;;;;;;5055125;28;20406;-67
2021/05/23 00:26:58;;;;;;;3.27;1.50;;;;;;;;;;5053142;28;20418;-68
2021/05/23 00:29:24;;;;;;;2.10;1.40;;;;;;;;;;5054697;28;20409;-68
2021/05/23 00:31:52;;;;;;;1.70;1.17;;;;;;;;;;5038492;28;20454;-69
2021/05/23 00:34:18;;;;;;;3.53;1.67;;;;;;;;;;5054882;28;20503;-67
2021/05/23 00:36:44;;;;;;;2.10;1.20;;;;;;;;;;5054721;28;20404;-67
2021/05/23 00:39:11;;;;;;;3.07;1.70;;;;;;;;;;5035795;28;20446;-67
2021/05/23 00:41:37;;;;;;;2.23;1.33;;;;;;;;;;5035101;28;20786;-67
2021/05/23 00:44:03;;;;;;;2.40;1.37;;;;;;;;;;5033686;28;20828;-67
2021/05/23 00:46:29;;;;;;;1.80;1.10;;;;;;;;;;5034827;28;21004;-67
2021/05/23 00:48:55;;;;;;;3.60;2.10;;;;;;;;;;5049395;28;20442;-67
2021/05/23 00:51:21;;;;;;;1.77;1.20;;;;;;;;;;5054444;28;20409;-67
2021/05/23 00:53:47;;;;;;;2.50;1.60;;;;;;;;;;5052491;28;20925;-67
2021/05/23 00:56:17;;;;;;;1.83;1.00;;;;;;;;;;5054355;28;20437;-67
2021/05/23 00:58:44;;;;;;;3.10;1.40;;;;;;;;;;5024356;28;20486;-67
2021/05/23 01:01:11;;;;;;;2.17;1.20;;;;;;;;;;5014369;28;20889;-67
2021/05/23 01:03:37;;;;;;;2.80;1.80;;;;;;;;;;5040299;28;20414;-67
2021/05/23 01:06:07;;;;;;;2.23;1.63;;;;;;;;;;5054319;28;20857;-67
2021/05/23 01:08:34;;;;;;;2.77;1.47;;;;;;;;;;5051940;28;20517;-67
2021/05/23 01:11:01;;;;;;;1.90;1.27;;;;;;;;;;5053895;28;20406;-67
2021/05/23 01:13:37;;;;;;;6.47;1.60;;;;;;;;;;5045947;28;20422;-67
2021/05/23 01:16:06;;;;;;;2.10;1.40;;;;;;;;;;5053925;28;20394;-67
2021/05/23 01:18:39;;;;;;;2.80;1.60;;;;;;;;;;5051755;28;20472;-67
2021/05/23 01:21:07;;;;;;;2.93;1.77;;;;;;;;;;5054179;28;20440;-67
2021/05/23 01:23:40;;;;;;;2.20;1.60;;;;;;;;;;5051923;28;20414;-67
2021/05/23 01:26:09;;;;;;;3.17;1.40;;;;;;;;;;5053855;28;20386;-67
2021/05/23 01:28:38;;;;;;;4.63;1.47;;;;;;;;;;5043853;28;20616;-66
2021/05/23 01:31:06;;;;;;;3.63;1.43;;;;;;;;;;5033399;28;20407;-66
2021/05/23 01:33:32;;;;;;;3.23;1.67;;;;;;;;;;5031565;28;20540;-66
2021/05/23 01:35:59;;;;;;;4.53;1.40;;;;;;;;;;5033344;28;20453;-67
2021/05/23 01:38:26;;;;;;;2.90;1.37;;;;;;;;;;5038148;28;20537;-66
2021/05/23 01:40:53;;;;;;;2.97;1.70;;;;;;;;;;5053542;28;20714;-67
2021/05/23 01:43:19;;;;;;;2.70;1.70;;;;;;;;;;5051852;28;20422;-67
2021/05/23 01:45:45;;;;;;;1.97;1.30;;;;;;;;;;5042373;28;20426;-67
2021/05/23 01:48:11;;;;;;;2.00;1.30;;;;;;;;;;5031973;28;20446;-67
2021/05/23 01:50:38;;;;;;;6.53;1.50;;;;;;;;;;5033390;28;20411;-67
2021/05/23 01:53:05;;;;;;;3.47;1.73;;;;;;;;;;5034170;28;20804;-67
2021/05/23 01:55:32;;;;;;;2.10;1.40;;;;;;;;;;5053074;28;20881;-67
2021/05/23 01:57:59;;;;;;;2.13;1.37;;;;;;;;;;5049879;28;20433;-67
2021/05/23 02:00:26;;;;;;;1.80;1.30;;;;;;;;;;5033737;28;20858;-67
2021/05/23 02:02:53;;;;;;;2.40;1.33;;;;;;;;;;5051538;28;20441;-67
2021/05/23 02:05:19;;;;;;;2.30;1.43;;;;;;;;;;5053300;28;20418;-67
2021/05/23 02:07:46;;;;;;;2.83;1.60;;;;;;;;;;5053293;28;20507;-67
2021/05/23 02:10:14;;;;;;;2.73;1.60;;;;;;;;;;5049946;28;20856;-67
2021/05/23 02:12:41;;;;;;;2.37;1.37;;;;;;;;;;5053261;28;20430;-67
2021/05/23 02:15:08;;;;;;;2.93;1.57;;;;;;;;;;5050761;28;20464;-67
2021/05/23 02:17:41;;;;;;;3.57;1.40;;;;;;;;;;5053106;28;20471;-68
2021/05/23 02:20:08;;;;;;;3.27;1.40;;;;;;;;;;5050938;28;20426;-67
2021/05/23 02:22:45;;;;;;;2.97;1.40;;;;;;;;;;5052884;28;20908;-67
2021/05/23 02:25:12;;;;;;;4.17;1.73;;;;;;;;;;5050953;28;20421;-67
2021/05/23 02:27:42;;;;;;;2.40;1.33;;;;;;;;;;5052657;28;20449;-67
2021/05/23 02:30:09;;;;;;;4.10;1.80;;;;;;;;;;5050263;28;20433;-68
2021/05/23 02:32:35;;;;;;;2.50;1.50;;;;;;;;;;5050563;28;20841;-69
2021/05/23 02:35:02;;;;;;;1.80;1.23;;;;;;;;;;5035586;28;20450;-68
2021/05/23 02:37:28;;;;;;;3.00;1.20;;;;;;;;;;5030862;28;20522;-67
2021/05/23 02:39:54;;;;;;;4.80;1.23;;;;;;;;;;5041935;28;20548;-67
2021/05/23 02:42:20;;;;;;;2.57;1.77;;;;;;;;;;5052723;28;20861;-67
2021/05/23 02:44:47;;;;;;;4.10;1.60;;;;;;;;;;5036371;28;20427;-67
2021/05/23 02:47:13;;;;;;;2.20;1.50;;;;;;;;;;5012493;28;20399;-67
2021/05/23 02:49:43;;;;;;;3.10;1.23;;;;;;;;;;5028446;28;20457;-67
2021/05/23 02:52:10;;;;;;;2.27;1.43;;;;;;;;;;5052416;28;20476;-67
2021/05/23 02:54:36;;;;;;;3.93;1.67;;;;;;;;;;5049002;28;20453;-67
2021/05/23 02:57:03;;;;;;;2.50;1.33;;;;;;;;;;5052068;28;20452;-67
2021/05/23 02:59:29;;;;;;;3.10;1.37;;;;;;;;;;5041895;28;20423;-68
2021/05/23 03:01:55;;;;;;;2.70;1.40;;;;;;;;;;5038033;28;20404;-67
2021/05/23 03:04:21;;;;;;;3.13;1.23;;;;;;;;;;5042557;28;20853;-67
2021/05/23 03:06:47;;;;;;;3.83;1.40;;;;;;;;;;5043009;28;20430;-67
2021/05/23 03:09:14;;;;;;;2.73;1.50;;;;;;;;;;5042466;28;20796;-67
2021/05/23 03:11:40;;;;;;;2.17;1.43;;;;;;;;;;5058984;28;20496;-67
2021/05/23 03:14:06;;;;;;;4.03;1.40;;;;;;;;;;5056508;28;20972;-67
2021/05/23 03:16:32;;;;;;;2.07;1.53;;;;;;;;;;5037803;28;20421;-67
2021/05/23 03:18:58;;;;;;;2.77;1.57;;;;;;;;;;5038555;28;20476;-67
2021/05/23 03:21:24;;;;;;;3.70;1.60;;;;;;;;;;5054271;28;20436;-67
2021/05/23 03:23:50;;;;;;;7.50;1.90;;;;;;;;;;5058907;28;20798;-67
2021/05/23 03:26:16;;;;;;;3.37;1.70;;;;;;;;;;5041276;28;20931;-67
2021/05/23 03:28:43;;;;;;;3.33;1.70;;;;;;;;;;5037075;28;20462;-67
2021/05/23 03:31:09;;;;;;;5.27;1.53;;;;;;;;;;5051467;28;20437;-67
2021/05/23 03:33:35;;;;;;;3.30;1.40;;;;;;;;;;5058653;28;20433;-68
2021/05/23 03:36:01;;;;;;;1.97;1.63;;;;;;;;;;5056454;28;20421;-67
2021/05/23 03:38:27;;;;;;;7.13;1.60;;;;;;;;;;5057216;28;20826;-67
2021/05/23 03:40:53;;;;;;;2.43;1.50;;;;;;;;;;5046897;28;21012;-67
2021/05/23 03:43:19;;;;;;;2.30;1.43;;;;;;;;;;5038424;28;20429;-67
2021/05/23 03:45:45;;;;;;;2.23;1.40;;;;;;;;;;5042840;28;20430;-67
2021/05/23 03:48:11;;;;;;;4.27;1.30;;;;;;;;;;5058354;28;20453;-67
2021/05/23 03:50:37;;;;;;;2.57;1.60;;;;;;;;;;5056510;28;20514;-66
2021/05/23 03:53:03;;;;;;;1.80;1.30;;;;;;;;;;5037430;28;20433;-67
2021/05/23 03:55:29;;;;;;;3.97;1.20;;;;;;;;;;5038865;28;20457;-67
2021/05/23 03:57:56;;;;;;;2.37;1.37;;;;;;;;;;5058301;28;20428;-66
2021/05/23 04:00:22;;;;;;;2.37;1.13;;;;;;;;;;5039560;28;20419;-67
2021/05/23 04:02:52;;;;;;;2.67;1.40;;;;;;;;;;5019770;28;20407;-67
2021/05/23 04:05:19;;;;;;;1.70;1.07;;;;;;;;;;5056193;28;20406;-67
2021/05/23 04:07:45;;;;;;;1.87;1.10;;;;;;;;;;5058275;28;20492;-67
2021/05/23 04:10:14;;;;;;;2.43;1.07;;;;;;;;;;5056818;28;20421;-67
2021/05/23 04:12:42;;;;;;;1.53;0.90;;;;;;;;;;5055600;28;20463;-67
2021/05/23 04:15:08;;;;;;;2.17;1.43;;;;;;;;;;5055627;28;20470;-67
2021/05/23 04:17:35;;;;;;;1.50;1.13;;;;;;;;;;5052839;28;20429;-67
2021/05/23 04:20:01;;;;;;;3.10;1.60;;;;;;;;;;5055265;28;20402;-67
2021/05/23 04:22:27;;;;;;;3.80;1.00;;;;;;;;;;5053197;28;20447;-66
2021/05/23 04:24:53;;;;;;;1.40;0.80;;;;;;;;;;5055262;28;20398;-67
2021/05/23 04:27:19;;;;;;;3.50;1.10;;;;;;;;;;5052967;28;20454;-67
2021/05/23 04:29:45;;;;;;;1.40;0.80;;;;;;;;;;5055125;28;20725;-66
2021/05/23 04:32:12;;;;;;;1.77;0.93;;;;;;;;;;5049449;28;20440;-66
2021/05/23 04:34:38;;;;;;;1.47;0.80;;;;;;;;;;5055050;28;20449;-67
2021/05/23 04:37:05;;;;;;;1.47;0.93;;;;;;;;;;5034252;28;20467;-67
2021/05/23 04:39:32;;;;;;;1.50;0.90;;;;;;;;;;5015066;28;20415;-66
2021/05/23 04:41:58;;;;;;;1.60;0.90;;;;;;;;;;5041340;28;20426;-67
2021/05/23 04:44:24;;;;;;;3.00;1.10;;;;;;;;;;5055384;28;20883;-67
2021/05/23 04:46:50;;;;;;;2.10;0.90;;;;;;;;;;5052488;28;21020;-67
2021/05/23 04:49:16;;;;;;;1.37;0.80;;;;;;;;;;5054881;28;20434;-67
2021/05/23 04:51:43;;;;;;;1.90;1.00;;;;;;;;;;5041942;28;20422;-67
2021/05/23 04:54:09;;;;;;;2.67;1.10;;;;;;;;;;5034648;28;20446;-67
2021/05/23 04:56:35;;;;;;;2.03;1.20;;;;;;;;;;5043176;28;20516;-67
2021/05/23 04:59:01;;;;;;;1.50;0.90;;;;;;;;;;5054701;28;20421;-67
2021/05/23 05:01:27;;;;;;;1.53;0.90;;;;;;;;;;5052292;28;20422;-66
2021/05/23 05:03:53;;;;;;;5.10;0.90;;;;;;;;;;5054447;28;20401;-67
2021/05/23 05:06:20;;;;;;;1.70;0.80;;;;;;;;;;5044198;28;20513;-67
2021/05/23 05:08:46;;;;;;;1.53;0.80;;;;;;;;;;5033482;28;20989;-67
2021/05/23 05:11:12;;;;;;;1.80;0.87;;;;;;;;;;5046508;28;20492;-67
2021/05/23 05:13:39;;;;;;;1.30;0.70;;;;;;;;;;5034311;28;20406;-67
2021/05/23 05:16:05;;;;;;;1.50;0.83;;;;;;;;;;5029037;28;20902;-67
2021/05/23 05:18:32;;;;;;;1.60;0.80;;;;;;;;;;5037966;28;20434;-67
2021/05/23 05:20:58;;;;;;;4.23;0.90;;;;;;;;;;5036007;28;20437;-66
2021/05/23 05:23:25;;;;;;;1.87;0.80;;;;;;;;;;5053720;28;20459;-66
2021/05/23 05:25:51;;;;;;;1.40;0.80;;;;;;;;;;5051847;28;20920;-66
2021/05/23 05:28:17;;;;;;;1.40;0.80;;;;;;;;;;5038880;28;20908;-67
2021/05/23 05:30:43;;;;;;;1.60;0.70;;;;;;;;;;5014318;28;20955;-66
2021/05/23 05:33:09;;;;;;;1.50;0.87;;;;;;;;;;5026652;28;20805;-67
2021/05/23 05:35:35;;;;;;;1.40;0.80;;;;;;;;;;5053772;28;20809;-67
2021/05/23 05:38:01;;;;;;;1.40;0.80;;;;;;;;;;5042060;28;21009;-67
2021/05/23 05:40:27;;;;;;;1.33;0.73;;;;;;;;;;5014401;28;20469;-67
2021/05/23 05:42:53;;;;;;;1.30;0.70;;;;;;;;;;5013999;28;20423;-67
2021/05/23 05:45:19;;;;;;;1.40;0.80;;;;;;;;;;5014225;28;20407;-67
2021/05/23 05:47:45;;;;;;;1.30;0.70;;;;;;;;;;5018704;28;20454;-67
2021/05/23 05:50:11;;;;;;;1.27;0.70;;;;;;;;;;5053631;28;20589;-67
2021/05/23 05:52:38;;;;;;;1.30;0.70;;;;;;;;;;5050026;28;20402;-66
2021/05/23 05:55:04;;;;;;;1.40;0.70;;;;;;;;;;5033533;28;20493;-66
2021/05/23 05:57:30;;;;;;;1.60;0.67;;;;;;;;;;5047121;28;20494;-66
2021/05/23 05:59:56;;;;;;;1.27;0.70;;;;;;;;;;5013747;28;20400;-67
2021/05/23 06:02:22;;;;;;;1.53;0.87;;;;;;;;;;5012471;28;20396;-67
2021/05/23 06:04:50;;;;;;;1.70;0.70;;;;;;;;;;5050276;28;20421;-67
2021/05/23 06:07:16;;;;;;;1.27;0.70;;;;;;;;;;5053402;28;20936;-67
2021/05/23 06:09:42;;;;;;;1.30;0.67;;;;;;;;;;5031805;28;20419;-67
2021/05/23 06:12:08;;;;;;;2.00;0.97;;;;;;;;;;5033153;28;20831;-67
2021/05/23 06:14:35;;;;;;;1.60;0.80;;;;;;;;;;5048670;28;20454;-67
2021/05/23 06:17:01;;;;;;;1.50;1.00;;;;;;;;;;5052995;28;20525;-67
2021/05/23 06:19:27;;;;;;;1.60;0.80;;;;;;;;;;5051117;28;20418;-67
2021/05/23 06:21:53;;;;;;;1.80;0.73;;;;;;;;;;5052914;28;20396;-67
2021/05/23 06:24:19;;;;;;;1.20;0.60;;;;;;;;;;5038969;28;20426;-67
2021/05/23 06:26:45;;;;;;;1.47;0.77;;;;;;;;;;5031629;28;20434;-67
2021/05/23 06:29:11;;;;;;;1.30;0.80;;;;;;;;;;5030946;28;20818;-66
2021/05/23 06:31:38;;;;;;;1.30;0.60;;;;;;;;;;5033162;28;20403;-66
2021/05/23 06:34:04;;;;;;;1.23;0.60;;;;;;;;;;5025208;28;20542;-66
2021/05/23 06:36:30;;;;;;;1.40;0.80;;;;;;;;;;5012417;28;20423;-66
2021/05/23 06:38:56;;;;;;;1.50;0.80;;;;;;;;;;5036149;28;20441;-66
2021/05/23 06:41:22;;;;;;;1.50;0.80;;;;;;;;;;5052739;28;20394;-66
2021/05/23 06:43:48;;;;;;;1.30;0.90;;;;;;;;;;5050567;28;20426;-66
2021/05/23 06:46:14;;;;;;;1.43;0.60;;;;;;;;;;5052717;28;20394;-66
2021/05/23 06:48:40;;;;;;;1.50;0.70;;;;;;;;;;5048498;28;20809;-66
2021/05/23 06:51:06;;;;;;;1.40;0.60;;;;;;;;;;5052931;28;20398;-66
2021/05/23 06:53:33;;;;;;;1.30;0.67;;;;;;;;;;5050648;28;20398;-67
2021/05/23 06:55:59;;;;;;;1.40;0.70;;;;;;;;;;5015532;28;20439;-67
2021/05/23 06:58:25;;;;;;;1.20;0.60;;;;;;;;;;5012908;28;20439;-67
2021/05/23 07:00:51;;;;;;;1.27;0.70;;;;;;;;;;5032548;28;20414;-67
2021/05/23 07:03:17;;;;;;;1.63;0.90;;;;;;;;;;5032941;28;20427;-67
2021/05/23 07:05:43;;;;;;;1.27;0.60;;;;;;;;;;5012856;28;20434;-67
2021/05/23 07:08:09;;;;;;;1.83;0.93;;;;;;;;;;5012888;28;20912;-67
2021/05/23 07:10:35;;;;;;;1.43;0.90;;;;;;;;;;5047453;28;20518;-66
2021/05/23 07:13:01;;;;;;;1.30;0.70;;;;;;;;;;5052676;28;20485;-67
2021/05/23 07:15:27;;;;;;;1.73;0.90;;;;;;;;;;5017845;28;20528;-67
2021/05/23 07:17:57;;;;;;;1.30;0.80;;;;;;;;;;5013037;28;20440;-67
2021/05/23 07:20:23;;;;;;;1.60;0.97;;;;;;;;;;5026326;28;20427;-67
2021/05/23 07:22:49;;;;;;;1.70;0.70;;;;;;;;;;5012835;28;20494;-67
2021/05/23 07:25:15;;;;;;;2.33;1.00;;;;;;;;;;5041083;28;20434;-67
2021/05/23 07:27:41;;;;;;;1.30;0.70;;;;;;;;;;5052394;28;20449;-68
2021/05/23 07:30:08;;;;;;;1.37;0.70;;;;;;;;;;5050168;28;20429;-67
2021/05/23 07:32:34;;;;;;;2.53;1.03;;;;;;;;;;5052714;28;20414;-67
2021/05/23 07:35:00;;;;;;;1.30;0.70;;;;;;;;;;5050311;28;20457;-67
2021/05/23 07:37:26;;;;;;;1.33;0.80;;;;;;;;;;5052559;28;20436;-67
2021/05/23 07:39:52;;;;;;;2.13;0.80;;;;;;;;;;5050497;28;20844;-67
2021/05/23 07:42:18;;;;;;;2.30;1.30;;;;;;;;;;5052230;28;20467;-67
2021/05/23 07:44:44;;;;;;;1.40;0.80;;;;;;;;;;5050302;28;20426;-67
2021/05/23 07:47:10;;;;;;;1.80;0.80;;;;;;;;;;5053721;28;20412;-67
2021/05/23 07:49:40;;;;;;;1.57;0.70;;;;;;;;;;5028067;28;20496;-67
2021/05/23 07:52:10;;;;;;;1.50;0.80;;;;;;;;;;5036297;28;20934;-67
2021/05/23 07:54:37;;;;;;;1.47;0.77;;;;;;;;;;5033019;28;20451;-67
2021/05/23 07:57:03;;;;;;;1.50;0.73;;;;;;;;;;5036167;28;20407;-66
2021/05/23 07:59:29;;;;;;;1.50;0.90;;;;;;;;;;5041262;28;20956;-67
2021/05/23 08:01:55;;;;;;;3.10;1.13;;;;;;;;;;5055698;28;20410;-67
2021/05/23 08:04:21;;;;;;;3.20;1.03;;;;;;;;;;5054011;28;20785;-67
2021/05/23 08:06:48;;;;;;;1.90;0.90;;;;;;;;;;5055979;28;20402;-67
2021/05/23 08:09:14;;;;;;;1.60;0.90;;;;;;;;;;5047583;28;20447;-67
2021/05/23 08:11:40;;;;;;;1.60;0.90;;;;;;;;;;5016290;28;20455;-67
2021/05/23 08:14:07;;;;;;;2.40;0.90;;;;;;;;;;5021957;28;20534;-67
2021/05/23 08:16:33;;;;;;;1.47;0.80;;;;;;;;;;5055707;28;20406;-67
2021/05/23 08:18:59;;;;;;;1.60;0.90;;;;;;;;;;5050108;28;20853;-67
2021/05/23 08:21:25;;;;;;;2.10;0.80;;;;;;;;;;5015692;28;20447;-66
2021/05/23 08:23:51;;;;;;;1.63;0.70;;;;;;;;;;5016105;28;20431;-68
2021/05/23 08:26:17;;;;;;;2.83;0.90;;;;;;;;;;5035537;28;20410;-68
2021/05/23 08:28:43;;;;;;;2.10;1.20;;;;;;;;;;5045352;28;20508;-67
2021/05/23 08:31:09;;;;;;;1.50;0.90;;;;;;;;;;5054204;28;20457;-67
2021/05/23 08:33:35;;;;;;;1.90;0.80;;;;;;;;;;5055157;28;20402;-67
2021/05/23 08:36:01;;;;;;;2.40;0.77;;;;;;;;;;5052985;28;20449;-67
2021/05/23 08:38:27;;;;;;;1.43;0.80;;;;;;;;;;5054884;28;20429;-67
2021/05/23 08:40:53;;;;;;;1.53;0.73;;;;;;;;;;5053202;28;20440;-67
2021/05/23 08:43:20;;;;;;;1.40;0.67;;;;;;;;;;5054941;28;20532;-67
2021/05/23 08:45:50;;;;;;;3.93;1.10;;;;;;;;;;5053074;28;20508;-67
2021/05/23 08:48:18;;;;;;;3.00;0.83;;;;;;;;;;5054869;28;20839;-67
2021/05/23 08:50:44;;;;;;;1.77;0.80;;;;;;;;;;5023770;28;20427;-67
2021/05/23 08:53:10;;;;;;;1.40;0.70;;;;;;;;;;5015088;28;20482;-67
2021/05/23 08:55:37;;;;;;;1.60;0.90;;;;;;;;;;5041996;28;20457;-67
2021/05/23 08:58:04;;;;;;;1.40;0.73;;;;;;;;;;5054425;28;20760;-67
2021/05/23 09:00:30;;;;;;;1.50;0.77;;;;;;;;;;5036115;28;20951;-67
2021/05/23 09:02:58;;;;;;;4.40;0.70;;;;;;;;;;5022994;28;20427;-67
2021/05/23 09:05:50;;;;;;;1.40;0.80;;;;;;;;;;5039263;28;20437;-67
2021/05/23 09:08:16;;;;;;;2.70;1.20;;;;;;;;;;5047512;28;20441;-67
2021/05/23 09:10:44;;;;;;;1.67;0.90;;;;;;;;;;5025447;28;20434;-67
2021/05/23 09:13:10;;;;;;;1.57;0.80;;;;;;;;;;5015366;28;20502;-67
2021/05/23 09:15:36;;;;;;;2.03;0.90;;;;;;;;;;5040338;28;21021;-67
2021/05/23 09:18:04;;;;;;;2.80;0.90;;;;;;;;;;5056238;28;20437;-67
2021/05/23 09:20:30;;;;;;;1.73;1.20;;;;;;;;;;5053145;28;20854;-67
2021/05/23 09:22:56;;;;;;;2.40;1.20;;;;;;;;;;5055145;28;20413;-68
2021/05/23 09:25:29;;;;;;;2.37;1.20;;;;;;;;;;5044189;28;20521;-68
2021/05/23 09:27:55;;;;;;;1.97;1.07;;;;;;;;;;5034206;28;20503;-68
2021/05/23 09:30:24;;;;;;;3.13;1.07;;;;;;;;;;5043071;28;20520;-68
2021/05/23 09:32:51;;;;;;;2.37;1.13;;;;;;;;;;5055029;28;20402;-68
2021/05/23 09:35:17;;;;;;;2.07;0.90;;;;;;;;;;5053708;28;20600;-68
2021/05/23 09:37:44;;;;;;;3.10;1.30;;;;;;;;;;5054271;28;20926;-68
2021/05/23 09:40:16;;;;;;;3.87;1.27;;;;;;;;;;5054127;28;20497;-68
2021/05/23 09:42:49;;;;;;;2.63;1.00;;;;;;;;;;5056277;28;20444;-68
2021/05/23 09:45:16;;;;;;;2.47;1.20;;;;;;;;;;5041127;28;20430;-68
2021/05/23 09:47:59;;;;;;;2.10;1.27;;;;;;;;;;5034355;28;20924;-68
2021/05/23 09:50:35;;;;;;;2.07;1.00;;;;;;;;;;5025578;28;20485;-68
2021/05/23 09:53:02;;;;;;;2.10;1.40;;;;;;;;;;5014725;28;20419;-68
2021/05/23 09:55:28;;;;;;;2.67;1.23;;;;;;;;;;5033628;28;20476;-68
2021/05/23 09:57:54;;;;;;;3.60;1.00;;;;;;;;;;5053585;28;20430;-68
2021/05/23 10:00:21;;;;;;;3.20;1.20;;;;;;;;;;5051455;28;20539;-68
2021/05/23 10:02:54;;;;;;;2.47;1.20;;;;;;;;;;5053573;28;20489;-68
2021/05/23 10:05:20;;;;;;;2.80;1.27;;;;;;;;;;5035263;28;20419;-68
2021/05/23 10:07:46;;;;;;;1.90;0.97;;;;;;;;;;5013759;28;20427;-68
2021/05/23 10:10:13;;;;;;;2.50;1.20;;;;;;;;;;5026637;28;21100;-68
2021/05/23 10:12:40;;;;;;;2.27;1.33;;;;;;;;;;5053352;28;20410;-68
2021/05/23 10:15:06;;;;;;;2.60;1.27;;;;;;;;;;5051127;28;20450;-68
2021/05/23 10:17:36;;;;;;;1.80;1.13;;;;;;;;;;5053243;28;20441;-68
2021/05/23 10:20:04;;;;;;;2.17;1.50;;;;;;;;;;5045045;28;20463;-68
2021/05/23 10:22:33;;;;;;;2.63;1.07;;;;;;;;;;5033332;28;20748;-68
2021/05/23 10:25:00;;;;;;;1.70;1.00;;;;;;;;;;5031170;28;20454;-68
2021/05/23 10:27:31;;;;;;;2.23;1.33;;;;;;;;;;5013417;28;20443;-69
2021/05/23 10:29:58;;;;;;;1.80;1.20;;;;;;;;;;5013163;28;20400;-68
2021/05/23 10:32:29;;;;;;;2.70;0.93;;;;;;;;;;5014323;28;20453;-68
2021/05/23 10:34:55;;;;;;;2.33;1.10;;;;;;;;;;5013556;28;20956;-68
2021/05/23 10:37:32;;;;;;;2.33;1.10;;;;;;;;;;5050482;28;20450;-67
2021/05/23 10:39:58;;;;;;;1.77;1.10;;;;;;;;;;5053525;28;20405;-67
2021/05/23 10:42:28;;;;;;;1.70;0.80;;;;;;;;;;5051912;28;20486;-68
2021/05/23 10:44:58;;;;;;;1.93;1.10;;;;;;;;;;5052876;28;20436;-68
2021/05/23 10:47:29;;;;;;;2.30;1.40;;;;;;;;;;5012993;28;20452;-68
2021/05/23 10:49:58;;;;;;;2.20;1.10;;;;;;;;;;5012961;28;20824;-68
2021/05/23 10:52:28;;;;;;;2.50;1.17;;;;;;;;;;5050350;28;20425;-68
2021/05/23 10:54:55;;;;;;;1.90;1.20;;;;;;;;;;5041279;28;20494;-67
2021/05/23 10:57:21;;;;;;;2.30;1.30;;;;;;;;;;5013994;28;20450;-67
2021/05/23 10:59:57;;;;;;;2.43;1.87;;;;;;;;;;5013253;28;20924;-68
2021/05/23 11:02:33;;;;;;;2.70;1.40;;;;;;;;;;5013226;28;20502;-68
2021/05/23 11:04:59;;;;;;;2.60;1.10;;;;;;;;;;5013122;28;20450;-68
2021/05/23 11:07:26;;;;;;;2.07;1.23;;;;;;;;;;5048940;28;20511;-67
2021/05/23 11:09:52;;;;;;;1.77;1.13;;;;;;;;;;5052619;28;20437;-68
2021/05/23 11:12:19;;;;;;;3.50;1.40;;;;;;;;;;5030288;28;20430;-68
2021/05/23 11:14:57;;;;;;;3.50;1.30;;;;;;;;;;5013050;28;20459;-67
2021/05/23 11:17:23;;;;;;;2.30;0.97;;;;;;;;;;5047931;28;20502;-68
2021/05/23 11:19:49;;;;;;;2.03;1.23;;;;;;;;;;5052520;28;20401;-67
2021/05/23 11:22:16;;;;;;;3.10;1.20;;;;;;;;;;5052678;28;20433;-68
2021/05/23 11:24:45;;;;;;;2.47;1.20;;;;;;;;;;5056591;28;20890;-68
2021/05/23 11:27:12;;;;;;;2.63;1.30;;;;;;;;;;5052719;28;20465;-68
2021/05/23 11:29:43;;;;;;;2.43;0.97;;;;;;;;;;5037536;28;20454;-68
2021/05/23 11:32:16;;;;;;;2.10;1.10;;;;;;;;;;5055997;28;20470;-68
2021/05/23 11:34:42;;;;;;;1.93;1.23;;;;;;;;;;5056614;28;20473;-70
2021/05/23 11:37:08;;;;;;;1.93;0.90;;;;;;;;;;5055587;28;20425;-69
2021/05/23 11:39:34;;;;;;;3.43;1.00;;;;;;;;;;5055183;28;20819;-68
2021/05/23 11:42:02;;;;;;;3.33;1.03;;;;;;;;;;5018134;28;20502;-68
2021/05/23 11:44:39;;;;;;;2.30;0.90;;;;;;;;;;5016717;28;20407;-68
2021/05/23 11:47:05;;;;;;;2.10;1.03;;;;;;;;;;5053105;28;20421;-68
2021/05/23 11:49:32;;;;;;;1.80;0.90;;;;;;;;;;5056135;28;20459;-67
2021/05/23 11:52:02;;;;;;;2.10;1.10;;;;;;;;;;5019458;28;20578;-67
2021/05/23 11:54:28;;;;;;;3.03;0.97;;;;;;;;;;5016010;28;20467;-68
2021/05/23 11:56:54;;;;;;;1.50;0.90;;;;;;;;;;5049090;28;20448;-68
2021/05/23 11:59:20;;;;;;;3.67;1.23;;;;;;;;;;5056290;28;20844;-67
2021/05/23 12:01:48;;;;;;;1.60;0.90;;;;;;;;;;5053788;28;20435;-68
2021/05/23 12:04:15;;;;;;;3.30;1.30;;;;;;;;;;5055713;28;20948;-68
2021/05/23 12:06:49;;;;;;;2.13;0.93;;;;;;;;;;5053709;28;20454;-68
2021/05/23 12:09:24;;;;;;;1.57;0.80;;;;;;;;;;5055928;28;20795;-68
2021/05/23 12:11:55;;;;;;;1.40;0.77;;;;;;;;;;5038116;28;20440;-68
2021/05/23 12:14:25;;;;;;;1.70;0.90;;;;;;;;;;5035746;28;20446;-68
2021/05/23 12:17:04;;;;;;;2.80;0.80;;;;;;;;;;5049919;28;21015;-68
2021/05/23 12:19:49;;;;;;;1.67;0.70;;;;;;;;;;5055880;28;20394;-68
2021/05/23 12:22:24;;;;;;;2.47;1.00;;;;;;;;;;5016828;28;20431;-68
2021/05/23 12:24:52;;;;;;;1.50;0.80;;;;;;;;;;5016106;28;20415;-68
2021/05/23 12:27:27;;;;;;;1.77;0.87;;;;;;;;;;5052379;28;20460;-68
2021/05/23 12:29:54;;;;;;;1.60;0.80;;;;;;;;;;5054293;28;20390;-68
2021/05/23 12:32:21;;;;;;;1.60;0.80;;;;;;;;;;5033414;28;20950;-68
2021/05/23 12:34:47;;;;;;;2.30;0.90;;;;;;;;;;5028535;28;20534;-68
2021/05/23 12:37:15;;;;;;;1.97;0.93;;;;;;;;;;5032625;28;20457;-68
2021/05/23 12:39:41;;;;;;;3.00;1.23;;;;;;;;;;5036500;28;20460;-68
2021/05/23 12:42:07;;;;;;;3.17;1.20;;;;;;;;;;5018836;28;20997;-68
2021/05/23 12:44:33;;;;;;;1.70;0.93;;;;;;;;;;5016113;28;20494;-68
2021/05/23 12:47:10;;;;;;;2.00;0.90;;;;;;;;;;5016134;28;20435;-68
2021/05/23 12:49:37;;;;;;;1.67;0.80;;;;;;;;;;5016004;28;20489;-68
2021/05/23 12:52:03;;;;;;;4.70;0.97;;;;;;;;;;5044654;28;20430;-68
2021/05/23 12:54:30;;;;;;;4.03;1.00;;;;;;;;;;5055881;28;20445;-68
2021/05/23 12:57:05;;;;;;;1.73;0.90;;;;;;;;;;5025715;28;20435;-68
2021/05/23 12:59:39;;;;;;;3.43;0.97;;;;;;;;;;5015885;28;20396;-68
2021/05/23 13:02:06;;;;;;;1.63;0.87;;;;;;;;;;5015814;28;20431;-68
2021/05/23 13:04:36;;;;;;;3.60;0.93;;;;;;;;;;5015780;28;20447;-68
2021/05/23 13:07:04;;;;;;;2.17;0.90;;;;;;;;;;5023539;28;20954;-67
2021/05/23 13:09:30;;;;;;;1.60;0.80;;;;;;;;;;5055375;28;20409;-68
2021/05/23 13:11:57;;;;;;;1.97;0.70;;;;;;;;;;5040093;28;20496;-68
2021/05/23 13:14:24;;;;;;;3.50;1.10;;;;;;;;;;5035111;28;20978;-68
2021/05/23 13:16:53;;;;;;;2.00;1.10;;;;;;;;;;5046223;28;20512;-68
2021/05/23 13:19:23;;;;;;;1.63;1.00;;;;;;;;;;5055803;28;20422;-68
2021/05/23 13:21:50;;;;;;;1.93;1.00;;;;;;;;;;5055106;28;20436;-68
2021/05/23 13:24:17;;;;;;;1.50;0.80;;;;;;;;;;5061050;28;20909;-68
2021/05/23 13:26:47;;;;;;;2.13;1.00;;;;;;;;;;5057947;28;20453;-67
2021/05/23 13:29:13;;;;;;;1.77;0.90;;;;;;;;;;5056147;28;20442;-67
2021/05/23 13:31:39;;;;;;;1.50;0.90;;;;;;;;;;5043286;28;20437;-67
2021/05/23 13:34:05;;;;;;;1.50;0.90;;;;;;;;;;5035100;28;20743;-67
2021/05/23 13:36:31;;;;;;;3.37;1.60;;;;;;;;;;5025944;28;20418;-67
2021/05/23 13:38:57;;;;;;;1.90;1.10;;;;;;;;;;5034541;28;20426;-67
2021/05/23 13:41:23;;;;;;;1.50;0.80;;;;;;;;;;5032562;28;20422;-67
2021/05/23 13:43:50;;;;;;;1.57;0.80;;;;;;;;;;5034733;28;20405;-68
2021/05/23 13:46:16;;;;;;;1.40;0.70;;;;;;;;;;5027682;28;20420;-67
2021/05/23 13:48:42;;;;;;;2.30;1.10;;;;;;;;;;5015335;28;20416;-67
2021/05/23 13:51:08;;;;;;;3.90;0.83;;;;;;;;;;5018915;28;20431;-67
2021/05/23 13:53:34;;;;;;;2.23;0.87;;;;;;;;;;5034505;28;20904;-67
2021/05/23 13:56:00;;;;;;;2.00;0.80;;;;;;;;;;5032443;28;20497;-68
2021/05/23 13:58:26;;;;;;;2.63;1.10;;;;;;;;;;5034402;28;20493;-67
2021/05/23 14:00:52;;;;;;;3.30;1.00;;;;;;;;;;5035915;28;20428;-67
2021/05/23 14:03:20;;;;;;;1.60;0.80;;;;;;;;;;5055276;28;20425;-67
2021/05/23 14:05:47;;;;;;;2.20;0.90;;;;;;;;;;5052971;28;20403;-68
2021/05/23 14:08:14;;;;;;;1.53;0.80;;;;;;;;;;5054733;28;20470;-68
2021/05/23 14:10:40;;;;;;;2.90;0.90;;;;;;;;;;5053245;28;20539;-68
2021/05/23 14:13:06;;;;;;;1.90;0.93;;;;;;;;;;5014559;28;20404;-67
2021/05/23 14:15:33;;;;;;;2.30;0.80;;;;;;;;;;5027538;28;20453;-68
2021/05/23 14:17:59;;;;;;;1.43;0.80;;;;;;;;;;5014838;28;20462;-68
2021/05/23 14:20:26;;;;;;;2.17;0.77;;;;;;;;;;5014911;28;20399;-68
2021/05/23 14:22:54;;;;;;;1.80;0.90;;;;;;;;;;5014269;28;20424;-68
2021/05/23 14:25:20;;;;;;;3.20;0.87;;;;;;;;;;5015058;28;20418;-68
2021/05/23 14:27:46;;;;;;;3.47;1.10;;;;;;;;;;5014721;28;20968;-68
2021/05/23 14:30:13;;;;;;;2.07;0.70;;;;;;;;;;5014793;28;20403;-68
2021/05/23 14:32:39;;;;;;;1.40;0.70;;;;;;;;;;5043801;28;20529;-68
2021/05/23 14:35:05;;;;;;;1.83;0.70;;;;;;;;;;5049468;28;20454;-68
2021/05/23 14:37:31;;;;;;;1.83;1.00;;;;;;;;;;5046112;28;20537;-68
2021/05/23 14:40:00;;;;;;;1.97;0.83;;;;;;;;;;5053940;28;20413;-68
2021/05/23 14:42:26;;;;;;;2.10;0.90;;;;;;;;;;5027315;28;20470;-68